Arboga, California
Current Conditions -  °F | °C
As of 5:53 AM on Monday 20 Oct 2014 (Local Time) from KMYV Reporting Station
Clear Clear  
Wind Chill: 58°   Ceiling: Unl
Heat Index: 58°   Visibility: 10mi
Dew Point: 55°   Wind: 12mph
Humidity: 90%   Direction: 150°SSE
Pressure: 29.88"   Gusts: NA
Location:  39.0904°N, 121.552°W
Report Text: KMYV 201253Z AUTO 15010KT 10SM CLR 14/13 A2988 RMK AO2 SLP121 T01440128
Loading
Personal Weather Stations






























Interactive Weather Map
Tropical Storm Tracking
New forecast layout! Learn more

10-Day Weather Forecast

Advertisements
Track Severe Weather on mobile